Time;durP1;ratioP1;P1;durP2;ratioP2;P2;SDS_P1;SDS_P2;PMS_P1;PMS_P2;Temp;Humidity;BMP_temperature;BMP_pressure;BME280_temperature;BME280_humidity;BME280_pressure;Samples;Min_cycle;Max_cycle;Signal;HPM_P1;HPM_P2
2023/07/27 00:01:28;;;;;;;5.40;2.30;;;19.60;99.90;;;;;;4122719;28;20038;-64
2023/07/27 00:03:28;;;;;;;6.05;2.60;;;19.60;99.90;;;;;;4105534;28;20110;-64
2023/07/27 00:05:29;;;;;;;4.43;2.10;;;19.60;99.90;;;;;;4112499;28;20038;-64
2023/07/27 00:07:30;;;;;;;6.10;2.15;;;19.60;99.90;;;;;;4121157;28;20033;-64
2023/07/27 00:09:31;;;;;;;2.67;2.00;;;19.60;99.90;;;;;;4098099;28;20038;-64
2023/07/27 00:11:31;;;;;;;4.05;2.10;;;19.60;99.90;;;;;;4109608;28;20039;-64
2023/07/27 00:13:32;;;;;;;3.25;2.10;;;19.60;99.90;;;;;;4122350;28;20058;-64
2023/07/27 00:15:33;;;;;;;5.63;2.53;;;19.60;99.90;;;;;;4103682;28;20130;-64
2023/07/27 00:17:33;;;;;;;3.58;2.00;;;19.60;99.90;;;;;;4123617;28;20046;-64
2023/07/27 00:19:34;;;;;;;3.60;2.10;;;19.50;99.90;;;;;;4127165;28;20041;-64
2023/07/27 00:21:35;;;;;;;4.25;2.13;;;19.60;99.90;;;;;;4108097;28;20043;-64
2023/07/27 00:23:35;;;;;;;4.65;2.17;;;19.50;99.90;;;;;;4106680;28;20050;-64
2023/07/27 00:25:36;;;;;;;3.42;2.28;;;19.50;99.90;;;;;;4121637;28;20034;-64
2023/07/27 00:27:37;;;;;;;3.53;2.50;;;19.50;99.90;;;;;;4119844;28;20034;-64
2023/07/27 00:29:37;;;;;;;3.63;2.30;;;19.50;99.90;;;;;;4098399;28;20452;-64
2023/07/27 00:31:38;;;;;;;4.68;2.40;;;19.50;99.90;;;;;;4102874;28;20027;-64
2023/07/27 00:33:38;;;;;;;4.45;2.50;;;19.50;99.90;;;;;;4125858;28;20031;-64
2023/07/27 00:35:39;;;;;;;4.07;1.80;;;19.50;99.90;;;;;;4113167;28;20114;-64
2023/07/27 00:37:40;;;;;;;3.92;2.63;;;19.50;99.90;;;;;;4118810;28;20035;-64
2023/07/27 00:39:40;;;;;;;5.85;2.58;;;19.40;99.90;;;;;;4087030;29;20043;-64
2023/07/27 00:41:42;;;;;;;6.18;2.60;;;19.40;99.90;;;;;;4120310;28;20046;-64
2023/07/27 00:43:43;;;;;;;6.13;2.47;;;19.50;99.90;;;;;;4110408;28;20078;-66
2023/07/27 00:45:43;;;;;;;3.40;2.13;;;19.40;99.90;;;;;;4127163;28;20035;-66
2023/07/27 00:47:44;;;;;;;5.00;2.53;;;19.40;99.90;;;;;;4125943;28;20038;-66
2023/07/27 00:49:45;;;;;;;4.00;2.30;;;19.40;99.90;;;;;;4127407;28;20118;-66
2023/07/27 00:51:46;;;;;;;5.10;2.35;;;19.40;99.90;;;;;;4110106;28;20043;-66
2023/07/27 00:53:47;;;;;;;4.78;2.65;;;19.40;99.90;;;;;;4126875;28;20173;-66
2023/07/27 00:55:48;;;;;;;3.58;2.08;;;19.40;99.90;;;;;;4119357;28;21431;-68
2023/07/27 00:57:49;;;;;;;3.13;2.17;;;19.40;99.90;;;;;;4117852;28;20039;-66
2023/07/27 00:59:50;;;;;;;4.03;2.38;;;19.40;99.90;;;;;;4111297;28;20035;-66
2023/07/27 01:01:51;;;;;;;3.67;2.05;;;19.40;99.90;;;;;;4127984;28;20046;-66
2023/07/27 01:03:53;;;;;;;4.78;2.65;;;19.50;99.90;;;;;;4129188;28;20391;-66
2023/07/27 01:05:54;;;;;;;3.88;2.30;;;19.50;99.90;;;;;;4107372;28;20051;-66
2023/07/27 01:07:55;;;;;;;3.58;2.13;;;19.40;99.90;;;;;;4124389;28;20137;-66
2023/07/27 01:09:55;;;;;;;4.40;2.50;;;19.50;99.90;;;;;;4126697;28;20046;-66
2023/07/27 01:12:29;;;;;;;3.90;2.45;;;19.50;99.90;;;;;;4102143;28;20031;-66
2023/07/27 01:14:46;;;;;;;2.80;2.00;;;19.50;99.90;;;;;;4114742;28;20034;-66
2023/07/27 01:16:58;;;;;;;4.88;2.67;;;19.40;99.90;;;;;;4122222;28;20031;-68
2023/07/27 01:19:16;;;;;;;4.15;2.30;;;19.40;99.90;;;;;;4092816;29;20400;-66
2023/07/27 01:21:29;;;;;;;5.18;2.35;;;19.50;99.90;;;;;;4112523;28;20085;-66
2023/07/27 01:24:07;;;;;;;2.83;2.20;;;19.40;99.90;;;;;;4126018;28;20535;-66
2023/07/27 01:26:34;;;;;;;2.78;2.10;;;19.40;99.90;;;;;;4123883;28;20380;-66
2023/07/27 01:29:08;;;;;;;3.63;2.55;;;19.50;99.90;;;;;;4110522;28;20031;-66
2023/07/27 01:31:17;;;;;;;6.32;2.38;;;19.50;99.90;;;;;;4126859;28;20038;-66
2023/07/27 01:33:30;;;;;;;4.78;2.45;;;19.40;99.90;;;;;;4127100;28;20031;-66
2023/07/27 01:35:59;;;;;;;3.78;2.25;;;19.40;99.90;;;;;;4122939;28;20531;-66
2023/07/27 01:38:03;;;;;;;3.60;2.30;;;19.30;99.90;;;;;;4122940;28;20088;-66
2023/07/27 01:40:05;;;;;;;4.85;2.63;;;19.30;99.90;;;;;;4112620;28;20113;-66
2023/07/27 01:42:08;;;;;;;7.18;2.78;;;19.20;99.90;;;;;;4112078;28;20719;-66
2023/07/27 01:44:10;;;;;;;3.70;2.75;;;19.20;99.90;;;;;;4119331;28;20407;-66
2023/07/27 01:46:12;;;;;;;5.35;2.45;;;19.20;99.90;;;;;;4122677;28;20064;-66
2023/07/27 01:48:15;;;;;;;4.90;2.92;;;19.20;99.90;;;;;;4114678;28;20065;-66
2023/07/27 01:50:16;;;;;;;4.60;2.45;;;19.20;99.90;;;;;;4107449;28;20108;-66
2023/07/27 01:52:19;;;;;;;4.13;2.53;;;19.10;99.90;;;;;;4098439;28;20209;-66
2023/07/27 01:54:20;;;;;;;3.38;2.58;;;19.20;99.90;;;;;;4108684;28;20056;-66
2023/07/27 01:56:23;;;;;;;2.67;2.08;;;19.20;99.90;;;;;;4121969;28;20058;-66
2023/07/27 01:58:26;;;;;;;3.38;2.17;;;19.20;99.90;;;;;;4125707;28;20050;-66
2023/07/27 02:00:27;;;;;;;;;;;19.20;99.90;;;;;;4105865;28;20451;-66
2023/07/27 02:02:29;;;;;;;4.50;2.60;;;19.20;99.90;;;;;;4125300;28;19913;-67
2023/07/27 02:04:30;;;;;;;4.90;2.53;;;19.20;99.90;;;;;;4095573;28;20035;-67
2023/07/27 02:06:30;;;;;;;3.78;2.35;;;19.20;99.90;;;;;;4101956;28;20123;-66
2023/07/27 02:08:31;;;;;;;2.88;2.25;;;19.20;99.90;;;;;;4125648;28;20545;-66
2023/07/27 02:10:33;;;;;;;4.25;2.40;;;19.20;99.90;;;;;;4118328;28;20022;-66
2023/07/27 02:12:41;;;;;;;2.30;2.10;;;19.20;99.90;;;;;;4105020;28;20035;-66
2023/07/27 02:15:01;;;;;;;3.55;2.40;;;19.20;99.90;;;;;;4127864;28;20027;-67
2023/07/27 02:17:08;;;;;;;4.78;2.08;;;19.20;99.90;;;;;;4121448;28;20034;-67
2023/07/27 02:19:12;;;;;;;5.00;2.25;;;19.20;99.90;;;;;;4111207;28;20031;-67
2023/07/27 02:21:14;;;;;;;4.57;2.72;;;19.20;99.90;;;;;;4109311;28;20045;-67
2023/07/27 02:23:15;;;;;;;3.42;2.35;;;19.10;99.90;;;;;;4127529;28;20126;-67
2023/07/27 02:25:16;;;;;;;4.45;2.55;;;19.10;99.90;;;;;;4124861;28;20046;-67
2023/07/27 02:27:17;;;;;;;4.13;2.95;;;19.10;99.90;;;;;;4097929;28;20040;-67
2023/07/27 02:29:17;;;;;;;5.50;2.75;;;19.10;99.90;;;;;;4096403;28;20098;-67
2023/07/27 02:31:18;;;;;;;5.03;2.63;;;19.00;99.90;;;;;;4125023;28;20034;-67
2023/07/27 02:33:19;;;;;;;5.03;2.95;;;19.00;99.90;;;;;;4127236;28;20038;-66
2023/07/27 02:35:20;;;;;;;5.53;2.42;;;19.00;99.90;;;;;;4123559;28;20039;-67
2023/07/27 02:37:21;;;;;;;4.78;2.40;;;19.00;99.90;;;;;;4115981;28;20046;-67
2023/07/27 02:39:22;;;;;;;5.25;2.75;;;18.90;99.90;;;;;;4124983;28;20026;-66
2023/07/27 02:41:22;;;;;;;3.65;2.30;;;18.90;99.90;;;;;;4107591;28;20183;-67
2023/07/27 02:43:23;;;;;;;5.32;2.67;;;18.90;99.90;;;;;;4114935;28;20830;-67
2023/07/27 02:45:24;;;;;;;3.72;2.25;;;18.80;99.90;;;;;;4098043;28;20130;-66
2023/07/27 02:47:24;;;;;;;3.47;2.45;;;18.80;99.90;;;;;;4123536;28;20092;-66
2023/07/27 02:49:25;;;;;;;4.15;2.63;;;18.80;99.90;;;;;;4127926;28;20066;-67
2023/07/27 02:51:25;;;;;;;3.83;2.72;;;18.80;99.90;;;;;;4108279;28;20031;-67
2023/07/27 02:53:26;;;;;;;4.72;2.90;;;18.70;99.90;;;;;;4120326;28;20050;-71
2023/07/27 02:55:27;;;;;;;3.58;2.33;;;18.70;99.90;;;;;;4123263;28;20284;-68
2023/07/27 02:57:27;;;;;;;3.83;2.58;;;18.60;99.90;;;;;;4119394;28;20450;-70
2023/07/27 02:59:28;;;;;;;4.07;2.58;;;18.60;99.90;;;;;;4115882;28;20049;-70
2023/07/27 03:01:29;;;;;;;3.90;2.53;;;18.60;99.90;;;;;;4123264;28;20048;-70
2023/07/27 03:03:30;;;;;;;5.88;2.72;;;18.50;99.90;;;;;;4117289;28;20445;-67
2023/07/27 03:05:30;;;;;;;4.35;2.67;;;18.50;99.90;;;;;;4104080;28;20496;-70
2023/07/27 03:07:31;;;;;;;4.80;2.75;;;18.50;99.90;;;;;;4105281;28;20035;-71
2023/07/27 03:09:33;;;;;;;4.10;2.60;;;18.40;99.90;;;;;;4125689;28;20038;-71
2023/07/27 03:11:36;;;;;;;4.50;2.55;;;18.30;99.90;;;;;;4111180;28;20039;-71
2023/07/27 03:13:37;;;;;;;4.32;3.05;;;18.30;99.90;;;;;;4120979;28;20037;-71
2023/07/27 03:15:40;;;;;;;3.25;2.67;;;18.20;99.90;;;;;;4121865;28;20499;-71
2023/07/27 03:17:41;;;;;;;3.95;2.50;;;18.20;99.90;;;;;;4100701;28;20089;-71
2023/07/27 03:19:42;;;;;;;3.88;2.42;;;18.10;99.90;;;;;;4111701;28;20505;-71
2023/07/27 03:21:43;;;;;;;3.42;2.50;;;18.10;99.90;;;;;;4124232;28;20093;-71
2023/07/27 03:23:43;;;;;;;4.20;2.40;;;18.10;99.90;;;;;;4104278;28;20606;-71
2023/07/27 03:25:44;;;;;;;3.20;2.25;;;18.10;99.90;;;;;;4121853;28;20383;-71
2023/07/27 03:27:44;;;;;;;3.50;2.58;;;18.00;99.90;;;;;;4115586;28;20031;-71
2023/07/27 03:29:45;;;;;;;5.65;3.03;;;18.00;99.90;;;;;;4119173;28;20034;-71
2023/07/27 03:31:46;;;;;;;5.80;2.65;;;18.00;99.90;;;;;;4091456;29;20030;-71
2023/07/27 03:33:47;;;;;;;5.82;2.83;;;18.00;99.90;;;;;;4117459;28;20031;-71
2023/07/27 03:35:48;;;;;;;3.42;2.67;;;18.00;99.90;;;;;;4117100;28;20431;-71
2023/07/27 03:37:50;;;;;;;3.50;2.40;;;18.00;99.90;;;;;;4116830;28;20053;-71
2023/07/27 03:39:51;;;;;;;3.83;2.60;;;18.00;99.90;;;;;;4120132;28;20065;-71
2023/07/27 03:41:52;;;;;;;4.93;2.60;;;17.90;99.90;;;;;;4110748;28;20043;-70
2023/07/27 03:43:52;;;;;;;4.43;2.40;;;17.90;99.90;;;;;;4111619;28;20061;-71
2023/07/27 03:45:53;;;;;;;4.45;2.70;;;17.80;99.90;;;;;;4120207;28;20447;-70
2023/07/27 03:47:54;;;;;;;7.18;3.15;;;17.80;99.90;;;;;;4121565;28;20030;-70
2023/07/27 03:49:55;;;;;;;4.40;2.70;;;17.70;99.90;;;;;;4127118;28;20030;-70
2023/07/27 03:51:56;;;;;;;5.60;3.05;;;17.70;99.90;;;;;;4109161;28;20468;-70
2023/07/27 03:53:56;;;;;;;4.00;2.42;;;17.60;99.90;;;;;;4125987;28;20037;-70
2023/07/27 03:56:00;;;;;;;2.75;2.30;;;17.60;99.90;;;;;;4116895;28;20035;-70
2023/07/27 03:58:01;;;;;;;5.68;2.92;;;17.60;99.90;;;;;;4113310;28;20519;-69
2023/07/27 04:00:02;;;;;;;4.85;2.45;;;17.60;99.90;;;;;;4115574;28;20026;-70
2023/07/27 04:02:03;;;;;;;3.92;2.30;;;17.50;99.90;;;;;;4123548;28;20038;-70
2023/07/27 04:04:04;;;;;;;5.72;3.28;;;17.50;99.90;;;;;;4097015;28;20031;-70
2023/07/27 04:06:05;;;;;;;3.90;2.65;;;17.50;99.90;;;;;;4114673;28;20037;-70
2023/07/27 04:08:06;;;;;;;3.80;2.85;;;17.40;99.90;;;;;;4105045;28;20035;-70
2023/07/27 04:10:07;;;;;;;3.95;2.28;;;17.40;99.90;;;;;;4123319;28;20475;-70
2023/07/27 04:12:08;;;;;;;5.00;2.42;;;17.40;99.90;;;;;;4126737;28;20042;-70
2023/07/27 04:14:09;;;;;;;5.15;3.03;;;17.30;99.90;;;;;;4125263;28;20061;-70
2023/07/27 04:16:09;;;;;;;3.25;2.38;;;17.30;99.90;;;;;;4121900;28;20038;-70
2023/07/27 04:18:10;;;;;;;6.80;2.70;;;17.30;99.90;;;;;;4120898;28;20125;-70
2023/07/27 04:20:11;;;;;;;3.85;2.42;;;17.30;99.90;;;;;;4129749;28;20380;-70
2023/07/27 04:22:12;;;;;;;4.32;2.67;;;17.20;99.90;;;;;;4130538;28;20130;-70
2023/07/27 04:24:12;;;;;;;4.22;2.58;;;17.20;99.90;;;;;;4130097;28;20514;-70
2023/07/27 04:26:13;;;;;;;4.65;2.58;;;17.20;99.90;;;;;;4122067;28;20531;-70
2023/07/27 04:28:13;;;;;;;3.83;2.35;;;17.20;99.90;;;;;;4108624;28;20456;-70
2023/07/27 04:30:14;;;;;;;4.22;2.88;;;17.20;99.90;;;;;;4122380;28;20065;-69
2023/07/27 04:32:15;;;;;;;4.85;2.88;;;17.20;99.90;;;;;;4129397;28;20062;-70
2023/07/27 04:34:18;;;;;;;4.25;2.80;;;17.10;99.90;;;;;;4127931;28;20036;-70
2023/07/27 04:36:19;;;;;;;3.97;2.42;;;17.10;99.90;;;;;;4099613;28;20114;-70
2023/07/27 04:38:20;;;;;;;4.75;2.20;;;17.00;99.90;;;;;;4124690;28;20045;-70
2023/07/27 04:40:21;;;;;;;3.90;2.25;;;17.00;99.90;;;;;;4126848;28;20058;-70
2023/07/27 04:42:21;;;;;;;4.47;3.08;;;17.10;99.90;;;;;;4129371;28;20078;-70
2023/07/27 04:44:22;;;;;;;3.90;2.80;;;16.90;99.90;;;;;;4128190;28;20137;-71
2023/07/27 04:46:22;;;;;;;7.10;3.03;;;16.90;99.90;;;;;;4123808;28;20030;-70
2023/07/27 04:48:23;;;;;;;4.47;2.20;;;16.90;99.90;;;;;;4127378;28;20107;-70
2023/07/27 04:50:24;;;;;;;3.38;2.30;;;16.80;99.90;;;;;;4103205;28;20042;-70
2023/07/27 04:52:24;;;;;;;5.57;2.95;;;16.80;99.90;;;;;;4120494;28;20163;-71
2023/07/27 04:54:25;;;;;;;4.93;2.35;;;16.70;99.90;;;;;;4127074;28;20042;-70
2023/07/27 04:56:26;;;;;;;6.05;2.95;;;16.80;99.90;;;;;;4119984;28;20177;-70
2023/07/27 04:58:26;;;;;;;5.03;2.53;;;16.70;99.90;;;;;;4114805;28;20046;-70
2023/07/27 05:00:27;;;;;;;5.18;2.83;;;16.80;99.90;;;;;;4122457;28;20039;-70
2023/07/27 05:02:28;;;;;;;7.85;2.70;;;16.80;99.90;;;;;;4114524;28;20038;-71
2023/07/27 05:04:28;;;;;;;6.00;3.05;;;16.70;99.90;;;;;;4126838;28;20034;-72
2023/07/27 05:06:29;;;;;;;4.05;2.47;;;16.70;99.90;;;;;;4118147;28;20046;-70
2023/07/27 05:08:29;;;;;;;3.90;2.60;;;16.70;99.90;;;;;;4122215;28;20045;-71
2023/07/27 05:10:30;;;;;;;4.57;2.40;;;16.70;99.90;;;;;;4092506;28;20039;-71
2023/07/27 05:12:32;;;;;;;4.32;2.67;;;16.70;99.90;;;;;;4113732;28;20039;-71
2023/07/27 05:14:32;;;;;;;5.15;2.35;;;16.60;99.90;;;;;;4112573;28;20114;-70
2023/07/27 05:16:33;;;;;;;3.83;2.70;;;16.70;99.90;;;;;;4122621;28;20096;-70
2023/07/27 05:18:33;;;;;;;5.28;2.92;;;16.70;99.90;;;;;;4114324;28;20031;-70
2023/07/27 05:20:34;;;;;;;5.18;2.92;;;16.60;99.90;;;;;;4125691;28;20068;-69
2023/07/27 05:22:35;;;;;;;4.60;2.90;;;16.60;99.90;;;;;;4084665;28;20023;-69
2023/07/27 05:24:35;;;;;;;4.47;2.63;;;16.60;99.90;;;;;;4120102;28;20037;-69
2023/07/27 05:26:36;;;;;;;6.25;3.30;;;16.60;99.90;;;;;;4111932;28;20042;-69
2023/07/27 05:28:36;;;;;;;6.00;2.65;;;16.50;99.90;;;;;;4125863;28;20074;-68
2023/07/27 05:30:37;;;;;;;4.97;2.67;;;16.50;99.90;;;;;;4127091;28;20042;-70
2023/07/27 05:32:38;;;;;;;4.35;2.90;;;16.50;99.90;;;;;;4113047;28;20042;-70
2023/07/27 05:34:38;;;;;;;6.18;2.83;;;16.40;99.90;;;;;;4120023;28;20031;-70
2023/07/27 05:36:39;;;;;;;6.68;3.10;;;16.50;99.90;;;;;;4121773;28;20031;-69
2023/07/27 05:38:40;;;;;;;7.50;3.20;;;16.50;99.90;;;;;;4127172;28;20034;-69
2023/07/27 05:40:40;;;;;;;6.75;3.10;;;16.40;99.90;;;;;;4124032;28;20034;-70
2023/07/27 05:42:42;;;;;;;5.80;3.15;;;16.40;99.90;;;;;;4122703;28;20022;-69
2023/07/27 05:44:42;;;;;;;4.25;2.92;;;16.40;99.90;;;;;;4126359;28;20511;-70
2023/07/27 05:46:43;;;;;;;5.65;2.85;;;16.40;99.90;;;;;;4113227;28;20034;-70
2023/07/27 05:48:43;;;;;;;6.00;2.67;;;16.40;99.90;;;;;;4106921;28;20039;-70
2023/07/27 05:50:44;;;;;;;6.07;2.95;;;16.40;99.90;;;;;;4124290;28;20030;-70
2023/07/27 05:52:45;;;;;;;5.22;2.97;;;16.40;99.90;;;;;;4120215;28;20026;-70
2023/07/27 05:54:45;;;;;;;5.45;2.75;;;16.30;99.90;;;;;;4125046;28;20037;-70
2023/07/27 05:56:46;;;;;;;4.47;2.70;;;16.30;99.90;;;;;;4113428;28;20041;-70
2023/07/27 05:58:47;;;;;;;5.15;2.42;;;16.20;99.90;;;;;;4116437;28;20134;-70
2023/07/27 06:00:47;;;;;;;14.32;3.25;;;16.30;99.90;;;;;;4106658;28;20031;-70
2023/07/27 06:02:48;;;;;;;3.80;2.25;;;16.20;99.90;;;;;;4121760;28;20040;-70
2023/07/27 06:04:48;;;;;;;3.30;2.08;;;16.30;99.90;;;;;;4103773;28;20103;-70
2023/07/27 06:06:49;;;;;;;5.25;2.70;;;16.70;99.90;;;;;;4118088;28;20442;-71
2023/07/27 06:08:50;;;;;;;4.18;2.78;;;17.00;99.90;;;;;;4121388;28;20125;-70
2023/07/27 06:11:07;;;;;;;5.20;2.85;;;16.30;99.90;;;;;;4104631;28;20073;-71
2023/07/27 06:13:08;;;;;;;5.38;2.70;;;;;;;;;;4119458;28;20030;-72
2023/07/27 06:15:10;;;;;;;4.50;2.60;;;;;;;;;;4117658;28;20050;-72
2023/07/27 06:17:11;;;;;;;4.40;2.47;;;;;;;;;;4117592;28;20089;-72
2023/07/27 06:19:12;;;;;;;3.60;2.30;;;;;;;;;;4118168;28;20602;-72
2023/07/27 06:21:13;;;;;;;3.35;2.63;;;;;;;;;;4121124;28;20124;-72
2023/07/27 06:23:14;;;;;;;4.05;2.28;;;;;;;;;;4122647;28;20040;-72
2023/07/27 06:25:15;;;;;;;4.53;2.50;;;;;;;;;;4119548;28;20039;-72
2023/07/27 06:27:16;;;;;;;3.55;2.38;;;;;;;;;;4111726;28;20034;-72
2023/07/27 06:29:17;;;;;;;3.97;1.98;;;;;;;;;;4109912;28;20776;-72
